createdAt,value
2023-04-07T00:01:23.817Z,5.14
2023-04-07T00:03:49.912Z,5.14
2023-04-07T00:06:15.978Z,5.11
2023-04-07T00:08:41.845Z,5.13
2023-04-07T00:11:08.344Z,5.18
2023-04-07T00:13:34.265Z,5.27
2023-04-07T00:16:00.426Z,5.06
2023-04-07T00:18:26.542Z,5.10
2023-04-07T00:20:52.454Z,5.18
2023-04-07T00:23:19.194Z,5.11
2023-04-07T00:25:47.704Z,5.16
2023-04-07T00:28:13.705Z,4.99
2023-04-07T00:30:41.233Z,4.96
2023-04-07T00:33:09.737Z,5.08
2023-04-07T00:35:35.937Z,5.17
2023-04-07T00:38:02.794Z,5.14
2023-04-07T00:40:28.803Z,5.06
2023-04-07T00:42:54.735Z,5.11
2023-04-07T00:45:20.856Z,4.95
2023-04-07T00:47:46.951Z,5.02
2023-04-07T00:50:12.952Z,5.02
2023-04-07T00:52:39.660Z,4.97
2023-04-07T00:55:08.672Z,5.02
2023-04-07T00:57:34.677Z,5.09
2023-04-07T01:00:06.023Z,5.12
2023-04-07T01:02:41.717Z,5.17
2023-04-07T01:05:16.871Z,5.15
2023-04-07T01:08:15.918Z,5.10
2023-04-07T01:10:55.120Z,5.06
2023-04-07T01:13:24.332Z,5.05
2023-04-07T01:16:03.674Z,5.02
2023-04-07T01:18:33.876Z,5.04
2023-04-07T01:21:10.622Z,4.98
2023-04-07T01:24:00.928Z,4.94
2023-04-07T01:26:31.576Z,5.04
2023-04-07T01:28:57.370Z,4.90
2023-04-07T01:31:26.082Z,4.90
2023-04-07T01:33:54.424Z,4.92
2023-04-07T01:36:21.579Z,4.91
2023-04-07T01:38:50.497Z,4.95
2023-04-07T01:41:18.352Z,4.90
2023-04-07T01:43:46.919Z,5.00
2023-04-07T01:46:14.257Z,5.03
2023-04-07T01:48:41.768Z,5.04
2023-04-07T01:51:10.953Z,4.98
2023-04-07T01:53:37.968Z,5.04
2023-04-07T01:56:05.022Z,5.12
2023-04-07T01:58:30.978Z,5.10
2023-04-07T02:00:57.024Z,5.15
2023-04-07T02:03:50.667Z,5.17
2023-04-07T02:06:21.845Z,5.05
2023-04-07T02:08:52.209Z,5.10
2023-04-07T02:11:21.139Z,5.15
2023-04-07T02:13:47.614Z,5.11
2023-04-07T02:16:15.029Z,5.15
2023-04-07T02:18:43.338Z,5.26
2023-04-07T02:21:11.038Z,5.17
2023-04-07T02:23:37.368Z,5.23
2023-04-07T02:26:03.356Z,5.21
2023-04-07T02:28:29.896Z,5.17
2023-04-07T02:30:55.799Z,5.15
2023-04-07T02:33:21.803Z,5.18
2023-04-07T02:35:47.662Z,5.26
2023-04-07T02:38:13.694Z,5.16
2023-04-07T02:40:39.766Z,5.18
2023-04-07T02:43:05.721Z,5.18
2023-04-07T02:45:31.645Z,5.23
2023-04-07T02:47:57.715Z,5.20
2023-04-07T02:50:25.374Z,5.20
2023-04-07T02:52:51.341Z,5.18
2023-04-07T02:55:17.974Z,5.11
2023-04-07T02:57:43.992Z,5.14
2023-04-07T03:00:10.563Z,5.07
2023-04-07T03:02:36.589Z,5.07
2023-04-07T03:05:05.462Z,5.10
2023-04-07T03:07:31.376Z,5.08
2023-04-07T03:10:00.459Z,5.14
2023-04-07T03:12:26.450Z,5.11
2023-04-07T03:14:52.375Z,5.08
2023-04-07T03:17:18.317Z,5.11
2023-04-07T03:19:44.299Z,5.14
2023-04-07T03:22:10.338Z,5.12
2023-04-07T03:24:37.217Z,5.15
2023-04-07T03:27:03.181Z,5.20
2023-04-07T03:29:29.044Z,5.28
2023-04-07T03:31:54.946Z,5.28
2023-04-07T03:34:20.946Z,5.25
2023-04-07T03:36:46.878Z,5.15
2023-04-07T03:39:12.824Z,5.20
2023-04-07T03:41:38.783Z,5.25
2023-04-07T03:44:04.828Z,5.34
2023-04-07T03:46:30.924Z,5.22
2023-04-07T03:48:59.811Z,5.12
2023-04-07T03:51:27.156Z,5.13
2023-04-07T03:53:53.525Z,5.15
2023-04-07T03:56:20.437Z,5.17
2023-04-07T03:58:46.489Z,5.13
2023-04-07T04:01:12.696Z,5.04
2023-04-07T04:03:38.867Z,5.12
2023-04-07T04:06:05.151Z,5.16
2023-04-07T04:08:31.094Z,5.11
2023-04-07T04:10:57.269Z,5.14
2023-04-07T04:13:23.262Z,5.24
2023-04-07T04:15:49.275Z,5.31
2023-04-07T04:18:15.527Z,5.38
2023-04-07T04:20:42.492Z,5.36
2023-04-07T04:23:08.414Z,5.19
2023-04-07T04:25:34.494Z,5.27
2023-04-07T04:28:00.466Z,5.37
2023-04-07T04:30:26.445Z,5.30
2023-04-07T04:32:52.991Z,5.33
2023-04-07T04:35:18.980Z,5.41
2023-04-07T04:37:45.057Z,5.49
2023-04-07T04:40:11.445Z,5.52
2023-04-07T04:42:37.344Z,5.60
2023-04-07T04:45:03.713Z,5.65
2023-04-07T04:47:30.025Z,5.51
2023-04-07T04:49:55.949Z,5.50
2023-04-07T04:52:21.870Z,5.57
2023-04-07T04:54:47.864Z,5.60
2023-04-07T04:57:13.780Z,5.62
2023-04-07T04:59:39.894Z,5.67
2023-04-07T05:02:05.841Z,5.62
2023-04-07T05:04:32.091Z,5.71
2023-04-07T05:06:58.274Z,5.71
2023-04-07T05:09:24.250Z,5.71
2023-04-07T05:11:50.225Z,5.73
2023-04-07T05:14:16.089Z,5.64
2023-04-07T05:16:42.166Z,5.54
2023-04-07T05:19:08.267Z,5.49
2023-04-07T05:21:34.140Z,5.50
2023-04-07T05:24:00.062Z,5.58
2023-04-07T05:26:27.284Z,5.67
2023-04-07T05:28:53.282Z,5.71
2023-04-07T05:31:19.219Z,5.65
2023-04-07T05:33:45.243Z,5.61
2023-04-07T05:36:11.159Z,5.63
2023-04-07T05:38:37.169Z,5.68
2023-04-07T05:41:03.164Z,5.54
2023-04-07T05:43:29.121Z,5.69
2023-04-07T05:45:55.264Z,5.63
2023-04-07T05:48:21.204Z,5.65
2023-04-07T05:50:47.200Z,5.68
2023-04-07T05:53:13.431Z,5.69
2023-04-07T05:55:42.068Z,5.58
2023-04-07T05:58:08.082Z,5.51
2023-04-07T06:00:34.057Z,5.69
2023-04-07T06:03:01.327Z,5.76
2023-04-07T06:05:27.431Z,5.73
2023-04-07T06:07:53.873Z,5.70
2023-04-07T06:10:20.076Z,5.56
2023-04-07T06:12:45.996Z,5.78
2023-04-07T06:15:11.965Z,5.67
2023-04-07T06:17:37.971Z,5.71
2023-04-07T06:20:04.448Z,5.74
2023-04-07T06:22:30.796Z,5.70
2023-04-07T06:24:58.283Z,5.79
2023-04-07T06:27:24.158Z,5.66
2023-04-07T06:29:50.293Z,5.67
2023-04-07T06:32:16.484Z,5.79
2023-04-07T06:34:42.395Z,5.76
2023-04-07T06:37:08.452Z,5.70
2023-04-07T06:39:34.499Z,5.76
2023-04-07T06:42:01.066Z,5.77
2023-04-07T06:44:27.183Z,5.88
2023-04-07T06:46:54.864Z,5.95
2023-04-07T06:49:21.053Z,6.00
2023-04-07T06:51:47.104Z,5.95
2023-04-07T06:54:14.182Z,6.01
2023-04-07T06:56:41.695Z,5.95
2023-04-07T06:59:07.969Z,5.94
2023-04-07T07:01:34.182Z,6.01
2023-04-07T07:04:00.735Z,6.13
2023-04-07T07:06:27.119Z,5.96
2023-04-07T07:08:53.593Z,6.02
2023-04-07T07:11:20.268Z,6.07
2023-04-07T07:13:47.395Z,6.12
2023-04-07T07:16:13.749Z,6.15
2023-04-07T07:18:39.815Z,6.13
2023-04-07T07:21:05.782Z,6.24
2023-04-07T07:23:31.839Z,6.23
2023-04-07T07:25:57.977Z,6.22
2023-04-07T07:28:24.111Z,6.26
2023-04-07T07:30:50.259Z,6.41
2023-04-07T07:33:16.297Z,6.42
2023-04-07T07:35:42.326Z,6.44
2023-04-07T07:38:08.354Z,6.41
2023-04-07T07:40:34.340Z,6.47
2023-04-07T07:43:00.544Z,6.45
2023-04-07T07:45:27.047Z,6.44
2023-04-07T07:47:53.089Z,6.46
2023-04-07T07:50:19.128Z,6.42
2023-04-07T07:52:45.583Z,6.43
2023-04-07T07:55:11.577Z,6.46
2023-04-07T07:57:37.505Z,6.41
2023-04-07T08:00:03.961Z,6.48
2023-04-07T08:02:33.258Z,6.52
2023-04-07T08:04:59.762Z,6.57
2023-04-07T08:07:26.665Z,6.47
2023-04-07T08:09:52.889Z,6.46
2023-04-07T08:12:18.978Z,6.60
2023-04-07T08:14:45.126Z,6.67
2023-04-07T08:17:11.915Z,6.73
2023-04-07T08:19:37.866Z,6.81
2023-04-07T08:22:03.788Z,6.75
2023-04-07T08:24:29.764Z,6.73
2023-04-07T08:26:55.923Z,6.83
2023-04-07T08:29:21.964Z,6.74
2023-04-07T08:31:48.008Z,6.69
2023-04-07T08:34:14.364Z,6.75
2023-04-07T08:36:41.887Z,6.69
2023-04-07T08:39:08.913Z,6.74
2023-04-07T08:41:40.888Z,6.70
2023-04-07T08:44:08.787Z,6.62
2023-04-07T08:46:37.263Z,6.57
2023-04-07T08:49:07.524Z,6.67
2023-04-07T08:51:34.473Z,6.70
2023-04-07T08:54:11.326Z,6.68
2023-04-07T08:56:40.223Z,6.69
2023-04-07T08:59:08.410Z,6.67
2023-04-07T09:01:36.139Z,6.60
2023-04-07T09:04:03.725Z,6.72
2023-04-07T09:06:31.454Z,6.76
2023-04-07T09:08:58.191Z,6.71
2023-04-07T09:11:26.868Z,6.80
2023-04-07T09:13:53.846Z,6.70
2023-04-07T09:16:20.129Z,6.73
2023-04-07T09:18:46.491Z,6.76
2023-04-07T09:21:13.440Z,6.88
2023-04-07T09:23:42.488Z,6.87
2023-04-07T09:26:27.661Z,6.80
2023-04-07T09:28:55.070Z,6.81
2023-04-07T09:31:44.028Z,6.81
2023-04-07T09:34:24.808Z,6.73
2023-04-07T09:36:50.714Z,6.81
2023-04-07T09:39:16.770Z,6.84
2023-04-07T09:41:43.228Z,6.86
2023-04-07T09:44:10.063Z,6.82
2023-04-07T09:46:47.481Z,6.92
2023-04-07T09:49:13.790Z,6.84
2023-04-07T09:51:55.842Z,6.91
2023-04-07T09:54:41.151Z,6.87
2023-04-07T09:57:09.282Z,6.88
2023-04-07T09:59:37.330Z,6.77
2023-04-07T10:02:04.440Z,6.85
2023-04-07T10:04:30.912Z,6.88
2023-04-07T10:06:58.442Z,6.90
2023-04-07T10:09:26.933Z,6.84
2023-04-07T10:11:56.212Z,6.84
2023-04-07T10:14:31.053Z,6.87
2023-04-07T10:16:59.758Z,6.94
2023-04-07T10:19:29.199Z,6.97
2023-04-07T10:21:56.482Z,6.98
2023-04-07T10:24:50.502Z,6.93
2023-04-07T10:27:20.714Z,7.01
2023-04-07T10:29:50.915Z,6.99
2023-04-07T10:32:17.028Z,7.02
2023-04-07T10:34:55.169Z,7.01
2023-04-07T10:37:23.109Z,7.16
2023-04-07T10:39:52.829Z,7.11
2023-04-07T10:42:37.351Z,7.16
2023-04-07T10:45:04.456Z,7.31
2023-04-07T10:47:30.804Z,7.21
2023-04-07T10:50:19.655Z,7.21
2023-04-07T10:52:47.645Z,7.28
2023-04-07T10:55:38.205Z,7.33
2023-04-07T10:58:14.187Z,7.32
2023-04-07T11:00:40.373Z,7.23
2023-04-07T11:03:13.728Z,7.34
2023-04-07T11:05:41.178Z,7.36
2023-04-07T11:08:08.067Z,7.44
2023-04-07T11:10:38.090Z,7.52
2023-04-07T11:13:08.013Z,7.55
2023-04-07T11:15:38.498Z,7.49
2023-04-07T11:18:17.579Z,7.37
2023-04-07T11:20:54.711Z,7.34
2023-04-07T11:23:26.486Z,7.35
2023-04-07T11:26:02.519Z,7.50
2023-04-07T11:28:29.699Z,7.49
2023-04-07T11:30:57.657Z,7.47
2023-04-07T11:33:26.656Z,7.35
2023-04-07T11:35:55.751Z,7.42
2023-04-07T11:38:26.770Z,7.61
2023-04-07T11:40:54.761Z,7.41
2023-04-07T11:43:27.555Z,7.45
2023-04-07T11:46:14.925Z,7.76
2023-04-07T11:48:43.768Z,7.80
2023-04-07T11:51:18.545Z,7.76
2023-04-07T11:53:45.639Z,7.79
2023-04-07T11:56:17.993Z,7.76
2023-04-07T11:58:51.867Z,7.63
2023-04-07T12:01:18.571Z,7.77
2023-04-07T12:03:58.785Z,7.93
2023-04-07T12:06:37.932Z,8.04
2023-04-07T12:09:08.545Z,8.12
2023-04-07T12:11:35.848Z,7.93
2023-04-07T12:14:06.484Z,8.12
2023-04-07T12:16:37.991Z,8.32
2023-04-07T12:19:04.222Z,8.40
2023-04-07T12:21:31.015Z,8.30
2023-04-07T12:23:56.973Z,8.24
2023-04-07T12:26:24.821Z,8.19
2023-04-07T12:28:50.832Z,8.19
2023-04-07T12:31:17.005Z,8.05
2023-04-07T12:33:42.978Z,7.96
2023-04-07T12:36:09.205Z,7.93
2023-04-07T12:38:35.270Z,7.73
2023-04-07T12:41:02.816Z,7.72
2023-04-07T12:43:32.476Z,7.79
2023-04-07T12:45:58.511Z,7.74
2023-04-07T12:48:26.789Z,7.55
2023-04-07T12:50:52.928Z,7.59
2023-04-07T12:53:18.965Z,7.48
2023-04-07T12:55:47.303Z,7.42
2023-04-07T12:58:14.948Z,7.35
2023-04-07T13:00:41.183Z,7.35
2023-04-07T13:03:07.573Z,7.45
2023-04-07T13:05:35.020Z,7.55
2023-04-07T13:08:01.008Z,7.62
2023-04-07T13:10:27.070Z,7.62
2023-04-07T13:12:53.087Z,7.67
2023-04-07T13:15:19.231Z,7.72
2023-04-07T13:17:46.733Z,7.73
2023-04-07T13:20:19.815Z,7.72
2023-04-07T13:22:50.773Z,7.77
2023-04-07T13:25:26.770Z,7.93
2023-04-07T13:27:52.741Z,7.98
2023-04-07T13:30:20.838Z,7.95
2023-04-07T13:32:48.673Z,8.06
2023-04-07T13:35:16.995Z,7.91
2023-04-07T13:37:43.841Z,7.94
2023-04-07T13:40:13.271Z,7.96
2023-04-07T13:42:39.736Z,8.05
2023-04-07T13:45:08.475Z,7.95
2023-04-07T13:47:35.395Z,7.94
2023-04-07T13:50:02.353Z,8.06
2023-04-07T13:52:34.435Z,7.81
2023-04-07T13:55:01.743Z,7.86
2023-04-07T13:57:30.687Z,7.86
2023-04-07T14:00:08.972Z,7.62
2023-04-07T14:02:35.296Z,7.71
2023-04-07T14:05:03.483Z,7.79
2023-04-07T14:07:29.868Z,7.78
2023-04-07T14:09:55.932Z,7.77
2023-04-07T14:12:25.844Z,7.66
2023-04-07T14:14:52.155Z,7.65
2023-04-07T14:17:18.218Z,7.71
2023-04-07T14:19:45.883Z,7.79
2023-04-07T14:22:13.705Z,7.95
2023-04-07T14:24:39.893Z,7.73
2023-04-07T14:27:06.048Z,7.74
2023-04-07T14:29:32.166Z,7.89
2023-04-07T14:31:58.209Z,7.84
2023-04-07T14:34:24.328Z,7.63
2023-04-07T14:36:54.808Z,7.76
2023-04-07T14:39:22.229Z,7.71
2023-04-07T14:41:48.436Z,7.62
2023-04-07T14:44:14.828Z,7.57
2023-04-07T14:46:42.182Z,7.57
2023-04-07T14:49:08.778Z,7.52
2023-04-07T14:51:34.930Z,7.51
2023-04-07T14:54:01.782Z,7.47
2023-04-07T14:56:27.760Z,7.55
2023-04-07T14:58:53.796Z,7.60
2023-04-07T15:01:19.809Z,7.66
2023-04-07T15:03:46.782Z,7.65
2023-04-07T15:06:13.316Z,7.63
2023-04-07T15:08:40.360Z,7.61
2023-04-07T15:11:09.447Z,7.74
2023-04-07T15:13:35.859Z,7.66
2023-04-07T15:16:12.543Z,7.85
2023-04-07T15:18:41.339Z,7.85
2023-04-07T15:21:09.035Z,8.06
2023-04-07T15:23:37.266Z,8.11
2023-04-07T15:26:05.014Z,8.20
2023-04-07T15:28:31.191Z,8.23
2023-04-07T15:30:57.838Z,8.17
2023-04-07T15:33:23.839Z,8.08
2023-04-07T15:35:50.129Z,8.05
2023-04-07T15:38:16.272Z,8.01
2023-04-07T15:40:42.314Z,7.90
2023-04-07T15:43:10.677Z,7.75
2023-04-07T15:45:41.357Z,7.58
2023-04-07T15:48:07.968Z,7.53
2023-04-07T15:50:35.482Z,7.54
2023-04-07T15:53:04.098Z,7.53
2023-04-07T15:55:34.240Z,7.53
2023-04-07T15:58:01.325Z,7.56
2023-04-07T16:00:29.735Z,7.44
2023-04-07T16:02:55.952Z,7.51
2023-04-07T16:05:22.151Z,7.51
2023-04-07T16:07:48.530Z,7.42
2023-04-07T16:10:14.726Z,7.44
2023-04-07T16:12:40.849Z,7.45
2023-04-07T16:15:09.203Z,7.38
2023-04-07T16:17:36.062Z,7.44
2023-04-07T16:20:03.442Z,7.47
2023-04-07T16:22:29.651Z,7.53
2023-04-07T16:24:55.686Z,7.46
2023-04-07T16:27:21.682Z,7.44
2023-04-07T16:29:47.934Z,7.41
2023-04-07T16:32:14.337Z,7.44
2023-04-07T16:34:40.375Z,7.32
2023-04-07T16:37:06.422Z,7.28
2023-04-07T16:39:32.340Z,7.39
2023-04-07T16:41:58.317Z,7.29
2023-04-07T16:44:24.379Z,7.38
2023-04-07T16:46:50.482Z,7.31
2023-04-07T16:49:16.764Z,7.40
2023-04-07T16:51:42.849Z,7.38
2023-04-07T16:54:08.812Z,7.40
2023-04-07T16:56:34.830Z,7.49
2023-04-07T16:59:02.695Z,7.54
2023-04-07T17:01:30.256Z,7.54
2023-04-07T17:03:56.448Z,7.57
2023-04-07T17:06:22.554Z,7.57
2023-04-07T17:08:48.510Z,7.59
2023-04-07T17:11:14.847Z,7.51
2023-04-07T17:13:41.145Z,7.54
2023-04-07T17:16:13.344Z,7.44
2023-04-07T17:18:39.608Z,7.50
2023-04-07T17:21:05.807Z,7.55
2023-04-07T17:23:32.870Z,7.46
2023-04-07T17:25:58.795Z,7.48
2023-04-07T17:28:26.695Z,7.54
2023-04-07T17:30:52.863Z,7.45
2023-04-07T17:33:18.822Z,7.49
2023-04-07T17:35:47.050Z,7.47
2023-04-07T17:38:13.058Z,7.42
2023-04-07T17:40:39.011Z,7.34
2023-04-07T17:43:05.203Z,7.36
2023-04-07T17:45:31.334Z,7.36
2023-04-07T17:47:57.711Z,7.35
2023-04-07T17:50:23.779Z,7.32
2023-04-07T17:52:50.852Z,7.31
2023-04-07T17:55:17.263Z,7.22
2023-04-07T17:57:43.968Z,7.23
2023-04-07T18:00:10.363Z,7.15
2023-04-07T18:02:39.523Z,7.16
2023-04-07T18:05:06.349Z,7.18
2023-04-07T18:07:32.582Z,7.19
2023-04-07T18:09:58.506Z,7.19
2023-04-07T18:12:24.738Z,7.22
2023-04-07T18:14:52.604Z,7.11
2023-04-07T18:17:18.566Z,7.04
2023-04-07T18:19:44.951Z,7.11
2023-04-07T18:22:11.096Z,7.09
2023-04-07T18:24:37.519Z,7.07
2023-04-07T18:27:04.478Z,7.07
2023-04-07T18:29:30.530Z,7.08
2023-04-07T18:31:56.517Z,7.04
2023-04-07T18:34:25.262Z,7.03
2023-04-07T18:36:51.481Z,6.99
2023-04-07T18:39:18.494Z,6.96
2023-04-07T18:41:46.701Z,6.97
2023-04-07T18:44:13.252Z,6.98
2023-04-07T18:46:39.566Z,6.96
2023-04-07T18:49:05.737Z,6.93
2023-04-07T18:51:32.156Z,6.90
2023-04-07T18:53:58.387Z,6.78
2023-04-07T18:56:27.667Z,6.77
2023-04-07T18:58:53.900Z,6.74
2023-04-07T19:01:20.149Z,6.74
2023-04-07T19:03:46.853Z,6.80
2023-04-07T19:06:14.994Z,6.78
2023-04-07T19:08:41.154Z,6.80
2023-04-07T19:11:07.214Z,6.76
2023-04-07T19:13:33.211Z,6.76
2023-04-07T19:15:59.622Z,6.82
2023-04-07T19:18:27.611Z,6.75
2023-04-07T19:20:53.600Z,6.79
2023-04-07T19:23:19.896Z,6.80
2023-04-07T19:25:46.144Z,6.78
2023-04-07T19:28:13.345Z,6.72
2023-04-07T19:30:39.487Z,6.68
2023-04-07T19:33:05.861Z,6.64
2023-04-07T19:35:33.571Z,6.69
2023-04-07T19:38:00.045Z,6.73
2023-04-07T19:40:26.032Z,6.68
2023-04-07T19:42:53.980Z,6.68
2023-04-07T19:45:20.402Z,6.59
2023-04-07T19:47:47.021Z,6.62
2023-04-07T19:50:15.845Z,6.69
2023-04-07T19:52:45.257Z,6.65
2023-04-07T19:55:12.459Z,6.61
2023-04-07T19:57:42.551Z,6.61
2023-04-07T20:00:09.319Z,6.66
2023-04-07T20:02:38.218Z,6.72
2023-04-07T20:05:05.081Z,6.71
2023-04-07T20:07:31.423Z,6.60
2023-04-07T20:09:57.632Z,6.66
2023-04-07T20:12:24.116Z,6.68
2023-04-07T20:14:51.076Z,6.67
2023-04-07T20:17:17.168Z,6.63
2023-04-07T20:19:43.236Z,6.62
2023-04-07T20:22:09.272Z,6.64
2023-04-07T20:24:35.507Z,6.65
2023-04-07T20:27:01.720Z,6.63
2023-04-07T20:29:27.669Z,6.58
2023-04-07T20:31:53.790Z,6.59
2023-04-07T20:34:20.730Z,6.57
2023-04-07T20:36:48.224Z,6.60
2023-04-07T20:39:15.196Z,6.60
2023-04-07T20:41:42.267Z,6.60
2023-04-07T20:44:08.834Z,6.64
2023-04-07T20:46:34.957Z,6.63
2023-04-07T20:49:01.019Z,6.62
2023-04-07T20:51:28.458Z,6.58
2023-04-07T20:53:54.544Z,6.69
2023-04-07T20:56:21.112Z,6.64
2023-04-07T20:58:47.769Z,6.63
2023-04-07T21:01:13.833Z,6.60
2023-04-07T21:03:40.044Z,6.59
2023-04-07T21:06:06.427Z,6.60
2023-04-07T21:08:32.276Z,6.49
2023-04-07T21:10:58.288Z,6.54
2023-04-07T21:13:26.424Z,6.53
2023-04-07T21:15:52.424Z,6.59
2023-04-07T21:18:19.387Z,6.57
2023-04-07T21:20:46.036Z,6.59
2023-04-07T21:23:12.006Z,6.62
2023-04-07T21:25:38.073Z,6.65
2023-04-07T21:28:05.017Z,6.63
2023-04-07T21:30:31.958Z,6.54
2023-04-07T21:32:58.259Z,6.52
2023-04-07T21:35:30.208Z,6.55
2023-04-07T21:37:56.211Z,6.53
2023-04-07T21:40:22.258Z,6.54
2023-04-07T21:42:48.400Z,6.52
2023-04-07T21:45:14.676Z,6.50
2023-04-07T21:47:41.155Z,6.47
2023-04-07T21:50:07.879Z,6.54
2023-04-07T21:52:33.865Z,6.44
2023-04-07T21:54:59.928Z,6.43
2023-04-07T21:57:25.891Z,6.50
2023-04-07T21:59:51.908Z,6.47
2023-04-07T22:02:17.905Z,6.46
2023-04-07T22:04:44.202Z,6.42
2023-04-07T22:07:11.044Z,6.49
2023-04-07T22:09:37.333Z,6.47
2023-04-07T22:12:03.334Z,6.42
2023-04-07T22:14:29.398Z,6.42
2023-04-07T22:16:55.393Z,6.49
2023-04-07T22:19:21.540Z,6.38
2023-04-07T22:21:48.813Z,6.44
2023-04-07T22:24:15.191Z,6.34
2023-04-07T22:26:41.171Z,6.34
2023-04-07T22:29:08.799Z,6.39
2023-04-07T22:31:35.316Z,6.37
2023-04-07T22:34:01.481Z,6.39
2023-04-07T22:36:27.656Z,6.41
2023-04-07T22:38:53.760Z,6.32
2023-04-07T22:41:20.820Z,6.26
2023-04-07T22:43:46.723Z,6.25
2023-04-07T22:46:12.643Z,6.19
2023-04-07T22:48:38.599Z,6.21
2023-04-07T22:51:04.587Z,6.20
2023-04-07T22:53:30.560Z,6.17
2023-04-07T22:55:56.530Z,6.16
2023-04-07T22:58:22.480Z,6.11
2023-04-07T23:00:48.450Z,6.15
2023-04-07T23:03:14.518Z,6.17
2023-04-07T23:05:40.749Z,6.08
2023-04-07T23:08:06.947Z,6.09
2023-04-07T23:10:33.718Z,6.20
2023-04-07T23:12:59.913Z,6.19
2023-04-07T23:15:26.682Z,6.21
2023-04-07T23:17:52.752Z,6.22
2023-04-07T23:20:18.766Z,6.16
2023-04-07T23:22:44.820Z,6.10
2023-04-07T23:25:10.808Z,6.16
2023-04-07T23:27:36.768Z,6.16
2023-04-07T23:30:03.749Z,6.13
2023-04-07T23:32:29.703Z,6.15
2023-04-07T23:34:55.645Z,6.14
2023-04-07T23:37:21.609Z,6.16
2023-04-07T23:39:47.536Z,6.12
2023-04-07T23:42:14.241Z,6.16
2023-04-07T23:44:40.519Z,6.20
2023-04-07T23:47:06.476Z,6.16
2023-04-07T23:49:32.431Z,6.17
2023-04-07T23:51:58.297Z,6.24
2023-04-07T23:54:24.318Z,6.02
2023-04-07T23:56:50.342Z,5.86
2023-04-07T23:59:16.351Z,6.01
